Time;durP1;ratioP1;P1;durP2;ratioP2;P2;SDS_P1;SDS_P2;PMS_P1;PMS_P2;Temp;Humidity;BMP_temperature;BMP_pressure;BME280_temperature;BME280_humidity;BME280_pressure;Samples;Min_cycle;Max_cycle;Signal;HPM_P1;HPM_P2
2022/09/24 00:03:59;;;;;;;11.07;9.13;;;;;;;21.89;52.80;100524.63;20565284;28;20051;-76
2022/09/24 00:14:00;;;;;;;11.68;8.73;;;;;;;21.87;53.05;100523.94;20580268;28;20392;-75
2022/09/24 00:24:05;;;;;;;10.63;8.90;;;;;;;21.84;52.83;100516.25;20558466;28;20050;-76
2022/09/24 00:34:06;;;;;;;10.50;8.85;;;;;;;21.82;52.84;100518.16;20580248;28;20046;-76
2022/09/24 00:44:44;;;;;;;10.70;8.90;;;;;;;21.83;52.67;100517.22;20555124;28;20124;-76
2022/09/24 00:54:45;;;;;;;11.95;8.88;;;;;;;21.80;52.84;100496.38;20627241;28;20054;-76
2022/09/24 01:04:45;;;;;;;10.40;8.48;;;;;;;21.79;52.75;100497.34;20619997;28;20093;-76
2022/09/24 01:14:56;;;;;;;9.40;7.70;;;;;;;21.76;52.87;100487.03;20532270;28;20050;-76
2022/09/24 01:25:19;;;;;;;8.98;7.53;;;;;;;21.77;52.77;100485.25;20551584;28;20047;-75
2022/09/24 01:35:29;;;;;;;9.02;7.53;;;;;;;21.74;52.48;100483.69;20536681;28;20156;-77
2022/09/24 01:45:32;;;;;;;8.30;7.28;;;;;;;21.71;52.28;100476.84;20535469;28;20118;-75
2022/09/24 01:55:37;;;;;;;8.85;7.15;;;;;;;21.69;52.30;100472.63;20538324;28;20047;-77
2022/09/24 02:05:50;;;;;;;7.68;6.88;;;;;;;21.66;52.42;100465.00;20544893;28;20046;-77
2022/09/24 02:15:56;;;;;;;7.75;6.93;;;;;;;21.66;52.27;100479.00;20572692;28;20055;-76
2022/09/24 02:26:01;;;;;;;7.43;6.65;;;;;;;21.65;52.43;100476.50;20588781;28;20046;-77
2022/09/24 02:36:02;;;;;;;8.30;6.75;;;;;;;21.63;52.54;100478.41;20574814;28;20640;-77
2022/09/24 02:46:02;;;;;;;8.25;6.13;;;;;;;21.61;52.64;100473.25;20575937;28;20159;-77
2022/09/24 02:56:03;;;;;;;8.13;6.40;;;;;;;21.59;52.54;100475.16;20583192;28;20042;-76
2022/09/24 03:06:04;;;;;;;7.05;6.00;;;;;;;21.57;52.52;100471.81;20572310;28;20043;-76
2022/09/24 03:16:06;;;;;;;6.72;5.78;;;;;;;21.56;52.48;100464.84;20543554;28;20184;-77
2022/09/24 03:26:07;;;;;;;6.67;6.00;;;;;;;21.55;52.28;100460.53;20545555;28;20045;-77
2022/09/24 03:36:09;;;;;;;7.82;5.90;;;;;;;21.53;51.90;100459.78;20564955;28;20042;-76
2022/09/24 03:46:12;;;;;;;7.40;6.00;;;;;;;21.51;51.95;100451.19;20562494;28;20046;-75
2022/09/24 03:56:13;;;;;;;9.48;6.10;;;;;;;21.49;52.04;100448.66;20598061;28;20421;-76
2022/09/24 04:06:14;;;;;;;6.55;5.53;;;;;;;21.47;51.72;100439.19;20657521;28;20194;-77
2022/09/24 04:16:14;;;;;;;12.65;5.70;;;;;;;21.42;51.33;100442.19;20633080;28;20484;-75
2022/09/24 04:26:16;;;;;;;7.85;5.93;;;;;;;21.46;51.03;100441.00;20582115;28;20133;-84
2022/09/24 04:36:17;;;;;;;7.55;5.68;;;;;;;21.48;51.97;100438.25;20564471;28;20113;-82
2022/09/24 04:46:18;;;;;;;7.47;5.35;;;;;;;21.53;52.14;100442.22;20572078;28;20038;-81
2022/09/24 04:56:18;;;;;;;7.40;4.93;;;;;;;21.57;52.85;100438.41;20540629;28;20080;-79
2022/09/24 05:06:20;;;;;;;7.03;5.05;;;;;;;21.56;52.45;100435.84;20573894;28;20092;-81
2022/09/24 05:16:21;;;;;;;6.05;4.82;;;;;;;21.63;52.86;100446.78;20593433;28;20866;-82
2022/09/24 05:36:42;;;;;;;11.00;6.55;;;;;;;21.71;53.44;100441.75;20561986;28;20054;-86
2022/09/24 05:46:44;;;;;;;8.33;7.10;;;;;;;21.70;53.49;100435.66;20568849;28;20046;-79
2022/09/24 05:56:45;;;;;;;6.97;6.27;;;;;;;21.74;53.40;100439.72;20581433;28;20066;-79
2022/09/24 06:06:46;;;;;;;7.05;6.07;;;;;;;21.75;53.37;100454.56;20555742;28;20284;-79
2022/09/24 06:16:46;;;;;;;72.93;50.70;;;;;;;21.80;53.65;100458.63;20590909;28;20046;-79
2022/09/24 06:26:47;;;;;;;81.05;49.67;;;;;;;21.82;53.56;100459.34;20587806;28;20508;-82
2022/09/24 06:36:54;;;;;;;60.90;39.20;;;;;;;21.82;51.83;100462.00;20564088;28;20137;-80
2022/09/24 06:46:54;;;;;;;54.53;35.25;;;;;;;21.83;53.32;100469.75;20565305;28;20129;-78
2022/09/24 06:56:54;;;;;;;52.72;34.47;;;;;;;21.88;54.23;100472.03;20596672;28;20065;-78
2022/09/24 07:17:17;;;;;;;43.85;31.25;;;;;;;21.96;56.15;100471.44;20545404;28;20051;-81
2022/09/24 07:27:20;;;;;;;43.53;29.50;;;;;;;22.00;56.53;100486.88;20563378;28;20113;-76
2022/09/24 07:37:20;;;;;;;45.28;28.52;;;;;;;22.03;56.64;100502.47;20563438;28;20053;-75
2022/09/24 07:47:21;;;;;;;39.88;28.02;;;;;;;22.06;56.86;100501.38;20574835;28;20509;-77
2022/09/24 07:57:22;;;;;;;41.42;27.90;;;;;;;22.11;56.98;100498.41;20595908;28;20084;-78
2022/09/24 08:07:23;;;;;;;45.83;27.08;;;;;;;22.13;57.32;100497.31;20565562;28;20058;-76
2022/09/24 08:17:24;;;;;;;37.72;26.25;;;;;;;22.22;57.02;100488.63;20626205;28;20527;-86
2022/09/24 08:27:25;;;;;;;36.80;24.70;;;;;;;22.20;56.72;100481.81;20635061;28;20049;-82
2022/09/24 08:37:28;;;;;;;33.30;22.63;;;;;;;22.24;56.33;100470.06;20586733;28;20509;-84
2022/09/24 08:48:17;;;;;;;54.13;19.65;;;;;;;22.23;54.60;100453.41;20620599;28;20061;-89
2022/09/24 08:58:45;;;;;;;42.95;19.50;;;;;;;22.30;54.64;100463.44;20640094;28;20044;-81
2022/09/24 09:09:20;;;;;;;29.52;17.77;;;;;;;22.32;54.85;100453.63;20660908;28;20050;-80
2022/09/24 09:19:26;;;;;;;34.53;15.98;;;;;;;22.38;54.22;100434.69;20649096;28;20098;-76
2022/09/24 09:29:27;;;;;;;33.38;17.35;;;;;;;22.44;54.90;100444.72;20567494;28;20038;-79
2022/09/24 09:39:36;;;;;;;32.78;15.43;;;;;;;22.47;54.44;100433.09;20558857;28;20104;-85
2022/09/24 09:49:39;;;;;;;18.42;10.43;;;;;;;22.45;51.09;100413.88;20586767;28;20043;-82
2022/09/24 09:59:45;;;;;;;17.60;9.40;;;;;;;22.52;50.57;100415.06;20587412;28;20038;-81
2022/09/24 10:09:56;;;;;;;9.90;4.15;;;;;;;22.19;42.01;100416.84;20656109;28;20049;-79
2022/09/24 10:19:59;;;;;;;4.13;2.80;;;;;;;21.97;39.54;100410.69;20542367;28;20050;-80
2022/09/24 10:40:27;;;;;;;10.33;4.00;;;;;;;22.33;47.68;100389.34;20564321;28;20045;-80
2022/09/24 10:50:50;;;;;;;5.85;3.90;;;;;;;22.41;49.12;100379.03;20626951;28;20048;-84
2022/09/24 11:00:57;;;;;;;6.72;4.05;;;;;;;22.52;49.73;100378.13;20616525;28;20057;-77
2022/09/24 11:11:03;;;;;;;4.97;3.63;;;;;;;22.62;50.24;100373.75;20557440;28;20128;-76
2022/09/24 11:21:36;;;;;;;6.57;3.72;;;;;;;22.73;50.21;100359.66;20535008;28;20045;-76
2022/09/24 11:31:58;;;;;;;6.43;3.70;;;;;;;22.81;50.25;100357.22;20487867;28;20050;-76
2022/09/24 11:42:27;;;;;;;6.90;3.33;;;;;;;22.90;50.60;100346.81;20520703;28;20073;-77
2022/09/24 11:52:28;;;;;;;3.75;3.08;;;;;;;23.00;50.65;100326.59;20597270;28;20410;-77
2022/09/24 12:02:36;;;;;;;5.00;3.20;;;;;;;23.10;50.74;100329.28;20593322;28;20046;-77
2022/09/24 12:12:41;;;;;;;7.15;3.53;;;;;;;23.17;50.57;100323.34;20590840;28;20046;-76
2022/09/24 12:22:45;;;;;;;5.30;3.10;;;;;;;23.15;50.66;100292.72;20547967;28;20047;-77
2022/09/24 12:32:54;;;;;;;4.03;2.72;;;;;;;23.15;50.73;100300.66;20449118;28;20045;-78
2022/09/24 12:42:58;;;;;;;2.78;2.58;;;;;;;23.15;50.94;100300.66;20534884;28;20136;-80
2022/09/24 12:53:00;;;;;;;5.97;2.88;;;;;;;23.07;51.29;100285.47;20549188;28;20034;-81
2022/09/24 13:03:02;;;;;;;7.23;2.67;;;;;;;22.99;51.04;100278.22;20557141;28;20061;-80
2022/09/24 13:13:21;;;;;;;5.03;2.73;;;;;;;22.94;51.34;100276.97;20588437;28;20042;-83
2022/09/24 13:23:21;;;;;;;9.65;2.92;;;;;;;22.88;50.68;100273.03;20552168;28;20897;-80
2022/09/24 13:33:30;;;;;;;5.68;3.15;;;;;;;22.87;50.98;100271.34;20532094;28;20179;-81
2022/09/24 13:43:50;;;;;;;5.38;2.97;;;;;;;22.89;51.79;100258.00;20558084;28;20137;-80
2022/09/24 13:53:58;;;;;;;4.75;2.80;;;;;;;22.92;51.97;100252.47;20617082;28;20461;-79
2022/09/24 14:04:19;;;;;;;5.10;2.63;;;;;;;22.90;51.88;100249.13;20564977;28;20085;-83
2022/09/24 14:14:26;;;;;;;6.93;2.87;;;;;;;22.88;52.04;100244.00;20596931;28;20054;-78
2022/09/24 14:24:42;;;;;;;5.05;2.65;;;;;;;22.88;51.79;100251.09;20537247;28;20073;-79
2022/09/24 14:34:43;;;;;;;2.85;2.60;;;;;;;22.83;51.88;100233.00;20556030;28;20078;-83
2022/09/24 14:44:45;;;;;;;4.75;2.72;;;;;;;22.83;51.50;100233.81;20538602;28;20096;-80
2022/09/24 14:54:45;;;;;;;6.40;3.53;;;;;;;22.84;51.43;100239.97;20526245;28;20058;-79
2022/09/24 15:04:49;;;;;;;5.85;3.28;;;;;;;22.78;51.74;100238.69;20511153;28;20049;-78
2022/09/24 15:14:58;;;;;;;10.00;3.72;;;;;;;22.76;49.16;100230.03;20515913;28;20058;-76
2022/09/24 15:24:58;;;;;;;11.50;4.32;;;;;;;22.75;50.77;100232.81;20557692;28;20054;-78
2022/09/24 15:34:59;;;;;;;9.52;4.03;;;;;;;22.76;51.05;100223.94;20490126;28;20053;-78
2022/09/24 15:45:00;;;;;;;7.57;4.15;;;;;;;22.62;51.17;100212.78;20511915;28;20053;-83
2022/09/24 15:55:01;;;;;;;9.25;4.43;;;;;;;22.59;51.33;100217.47;20541001;28;20138;-79
2022/09/24 16:05:02;;;;;;;8.20;4.40;;;;;;;22.55;47.81;100211.63;20498569;28;20097;-79
2022/09/24 16:15:03;;;;;;;7.95;3.70;;;;;;;22.22;44.44;100219.63;20497375;28;20074;-77
2022/09/24 16:25:04;;;;;;;9.13;4.28;;;;;;;22.39;49.52;100212.13;20500582;28;20047;-75
2022/09/24 16:35:05;;;;;;;6.18;4.03;;;;;;;22.45;50.06;100214.22;20502547;28;20046;-80
2022/09/24 16:45:06;;;;;;;8.00;4.70;;;;;;;22.47;50.50;100211.44;20510828;28;20069;-79
2022/09/24 16:55:07;;;;;;;6.93;4.28;;;;;;;22.47;50.60;100207.03;20535689;28;20094;-79
2022/09/24 17:05:09;;;;;;;7.75;4.47;;;;;;;22.43;48.76;100202.97;20527474;28;20065;-82
2022/09/24 17:15:13;;;;;;;7.47;4.10;;;;;;;22.43;49.21;100196.84;20591642;28;20038;-79
2022/09/24 17:25:18;;;;;;;6.50;4.00;;;;;;;22.44;50.13;100203.81;20591944;28;20045;-78
2022/09/24 17:35:18;;;;;;;9.30;4.03;;;;;;;22.43;49.77;100208.25;20549178;28;20097;-80
2022/09/24 17:45:20;;;;;;;7.13;3.80;;;;;;;22.44;50.26;100211.72;20534294;28;20038;-78
2022/09/24 17:55:21;;;;;;;7.90;4.63;;;;;;;22.43;50.41;100210.06;20543141;28;20101;-80
2022/09/24 18:05:22;;;;;;;8.60;5.13;;;;;;;22.42;51.08;100216.28;20529645;28;20213;-82
2022/09/24 18:15:22;;;;;;;13.30;5.38;;;;;;;22.42;51.26;100217.13;20544256;28;20042;-82
2022/09/24 18:25:23;;;;;;;8.07;5.10;;;;;;;22.45;51.74;100222.13;20586923;28;20039;-83
2022/09/24 18:35:23;;;;;;;10.27;5.05;;;;;;;22.45;51.64;100227.41;20566903;28;20051;-82
2022/09/24 18:45:24;;;;;;;9.55;4.80;;;;;;;22.43;51.71;100224.06;20569253;28;20038;-82
2022/09/24 18:55:24;;;;;;;8.18;4.90;;;;;;;22.43;51.68;100215.31;20526130;28;20199;-80
2022/09/24 19:05:27;;;;;;;7.80;4.78;;;;;;;22.44;51.64;100233.66;20534076;28;20049;-81
2022/09/24 19:15:28;;;;;;;10.38;4.88;;;;;;;22.38;51.66;100224.44;20511419;28;20145;-78
2022/09/24 19:25:33;;;;;;;11.13;5.28;;;;;;;22.42;51.72;100225.03;20595243;28;20038;-76
2022/09/24 19:35:35;;;;;;;11.57;5.28;;;;;;;22.44;52.26;100215.19;20600226;28;20049;-79
2022/09/24 19:45:36;;;;;;;14.40;4.60;;;;;;;22.42;53.05;100211.00;20550063;28;20405;-76
2022/09/24 19:55:37;;;;;;;8.55;5.55;;;;;;;22.43;52.93;100210.88;20624351;28;20471;-80
2022/09/24 20:05:42;;;;;;;8.85;4.90;;;;;;;22.39;53.12;100207.66;20576011;28;20042;-79
2022/09/24 20:15:42;;;;;;;8.80;4.78;;;;;;;22.41;51.92;100214.63;20547147;28;20134;-77
2022/09/24 20:36:12;;;;;;;9.07;5.07;;;;;;;22.29;52.74;100201.47;20584067;28;20053;-78
2022/09/24 20:46:20;;;;;;;8.35;4.80;;;;;;;22.23;52.60;100194.91;20587407;28;20489;-78
2022/09/24 20:56:21;;;;;;;9.18;4.82;;;;;;;22.22;52.58;100203.78;20647027;28;21264;-76
2022/09/24 21:06:22;;;;;;;6.97;4.57;;;;;;;22.19;52.78;100209.34;20666230;23;20083;-78
2022/09/24 21:16:27;;;;;;;9.48;5.20;;;;;;;22.16;52.94;100208.75;20662351;28;20056;-78
2022/09/24 21:26:30;;;;;;;8.95;4.95;;;;;;;22.13;52.76;100199.31;20683352;28;20044;-78
2022/09/24 21:36:34;;;;;;;8.10;4.72;;;;;;;22.10;52.92;100201.38;20657282;28;20089;-77
2022/09/24 21:46:34;;;;;;;7.25;4.75;;;;;;;22.07;53.01;100203.28;20642272;28;20042;-77
2022/09/24 21:56:36;;;;;;;7.63;5.03;;;;;;;22.07;53.10;100198.03;20639175;28;20034;-77
2022/09/24 22:06:36;;;;;;;7.28;4.97;;;;;;;22.05;52.76;100205.22;20641058;28;20052;-77
2022/09/24 22:16:36;;;;;;;5.75;4.55;;;;;;;22.06;53.30;100196.34;20636867;28;20058;-76
2022/09/24 22:26:37;;;;;;;8.90;5.13;;;;;;;22.05;53.29;100192.03;20634749;28;20123;-77
2022/09/24 22:36:37;;;;;;;6.53;4.35;;;;;;;22.02;53.20;100181.75;20646609;28;20592;-77
2022/09/24 22:46:40;;;;;;;8.63;4.85;;;;;;;22.03;53.36;100182.59;20642520;28;20038;-77
2022/09/24 22:56:40;;;;;;;;;;;;;;;22.04;53.03;100176.34;20632578;28;20558;-77
2022/09/24 23:06:42;;;;;;;6.80;4.90;;;;;;;22.00;52.87;100174.94;20637148;28;19951;-77
2022/09/24 23:16:42;;;;;;;6.20;4.97;;;;;;;21.99;53.17;100165.38;20634704;28;20041;-77
2022/09/24 23:26:44;;;;;;;6.10;4.95;;;;;;;21.98;53.18;100174.22;20609193;28;20425;-77
2022/09/24 23:36:44;;;;;;;6.00;4.72;;;;;;;21.97;53.07;100172.56;20628957;28;20107;-77
2022/09/24 23:46:45;;;;;;;5.95;5.10;;;;;;;21.94;53.35;100165.75;20619530;28;20042;-77
2022/09/24 23:56:45;;;;;;;6.45;5.00;;;;;;;21.92;53.30;100157.13;20638292;28;20619;-76
